createdAt,value
2018-05-14T00:00:48.653Z,0
2018-05-14T00:01:58.083Z,0
2018-05-14T00:03:07.263Z,0
2018-05-14T00:04:16.745Z,0
2018-05-14T00:05:26.212Z,0
2018-05-14T00:06:35.610Z,0
2018-05-14T00:07:45.282Z,0
2018-05-14T00:08:54.220Z,0
2018-05-14T00:10:03.467Z,0
2018-05-14T00:11:12.732Z,0
2018-05-14T00:12:21.716Z,0
2018-05-14T00:13:31.517Z,0
2018-05-14T00:14:41.007Z,0
2018-05-14T00:15:50.429Z,0
2018-05-14T00:16:59.708Z,0
2018-05-14T00:18:08.671Z,0
2018-05-14T00:19:18.358Z,0
2018-05-14T00:20:27.068Z,0
2018-05-14T00:21:36.232Z,0
2018-05-14T00:22:45.139Z,0
2018-05-14T00:23:54.036Z,0
2018-05-14T00:25:03.478Z,0
2018-05-14T00:26:12.394Z,0
2018-05-14T00:27:22.358Z,0
2018-05-14T00:28:32.065Z,0
2018-05-14T00:29:41.773Z,0
2018-05-14T00:30:51.731Z,0
2018-05-14T00:32:01.479Z,0
2018-05-14T00:33:10.924Z,0
2018-05-14T00:34:20.123Z,0
2018-05-14T00:35:29.101Z,0
2018-05-14T00:36:38.015Z,0
2018-05-14T00:37:47.705Z,0
2018-05-14T00:38:57.139Z,0
2018-05-14T00:40:06.114Z,0
2018-05-14T00:41:15.828Z,0
2018-05-14T00:42:25.506Z,0
2018-05-14T00:43:34.915Z,0
2018-05-14T00:44:44.622Z,0
2018-05-14T00:45:54.330Z,0
2018-05-14T00:47:04.042Z,0
2018-05-14T00:48:13.481Z,0
2018-05-14T00:49:22.916Z,0
2018-05-14T00:50:32.765Z,0
2018-05-14T00:51:42.196Z,0
2018-05-14T00:52:51.376Z,0
2018-05-14T00:54:00.597Z,0
2018-05-14T00:55:09.779Z,0
2018-05-14T00:56:19.496Z,0
2018-05-14T00:57:29.026Z,0
2018-05-14T00:58:38.209Z,0
2018-05-14T00:59:48.276Z,0
2018-05-14T01:00:57.451Z,0
2018-05-14T01:02:06.674Z,0
2018-05-14T01:03:16.369Z,0
2018-05-14T01:04:25.816Z,0
2018-05-14T01:05:35.510Z,0
2018-05-14T01:06:45.455Z,0
2018-05-14T01:07:54.920Z,0
2018-05-14T01:09:04.600Z,0
2018-05-14T01:10:13.339Z,0
2018-05-14T01:11:23.293Z,0
2018-05-14T01:12:32.199Z,0
2018-05-14T01:13:41.648Z,0
2018-05-14T01:14:50.585Z,0
2018-05-14T01:16:00.020Z,0
2018-05-14T01:17:09.091Z,0
2018-05-14T01:18:18.762Z,0
2018-05-14T01:19:27.678Z,0
2018-05-14T01:20:37.153Z,0
2018-05-14T01:21:46.845Z,0
2018-05-14T01:22:56.330Z,0
2018-05-14T01:24:05.768Z,0
2018-05-14T01:25:14.923Z,0
2018-05-14T01:26:24.877Z,0
2018-05-14T01:27:33.815Z,0
2018-05-14T01:28:43.262Z,0
2018-05-14T01:29:52.677Z,0
2018-05-14T01:31:02.395Z,0
2018-05-14T01:32:11.575Z,0
2018-05-14T01:33:20.983Z,0
2018-05-14T01:34:30.693Z,0
2018-05-14T01:35:40.131Z,0
2018-05-14T01:36:49.354Z,0
2018-05-14T01:37:58.561Z,0
2018-05-14T01:39:08.242Z,0
2018-05-14T01:40:17.929Z,0
2018-05-14T01:41:27.162Z,0
2018-05-14T01:42:36.583Z,0
2018-05-14T01:43:46.298Z,0
2018-05-14T01:44:55.974Z,0
2018-05-14T01:46:05.403Z,0
2018-05-14T01:47:14.847Z,0
2018-05-14T01:48:24.770Z,0
2018-05-14T01:49:34.548Z,0
2018-05-14T01:50:44.502Z,0
2018-05-14T01:51:54.177Z,0
2018-05-14T01:53:03.923Z,0
2018-05-14T01:54:13.620Z,0
2018-05-14T01:55:22.566Z,0
2018-05-14T01:56:31.733Z,0
2018-05-14T01:57:40.904Z,0
2018-05-14T01:58:50.118Z,0
2018-05-14T01:59:59.524Z,0
2018-05-14T02:01:08.968Z,0
2018-05-14T02:02:18.152Z,0
2018-05-14T02:03:27.841Z,0
2018-05-14T02:04:37.270Z,0
2018-05-14T02:05:46.956Z,0
2018-05-14T02:06:56.756Z,0
2018-05-14T02:08:06.197Z,0
2018-05-14T02:09:15.615Z,0
2018-05-14T02:10:25.080Z,0
2018-05-14T02:11:34.757Z,0
2018-05-14T02:12:44.173Z,0
2018-05-14T02:13:53.976Z,0
2018-05-14T02:15:03.409Z,0
2018-05-14T02:16:12.852Z,0
2018-05-14T02:17:22.539Z,0
2018-05-14T02:18:31.708Z,0
2018-05-14T02:19:41.168Z,0
2018-05-14T02:20:50.596Z,0
2018-05-14T02:21:59.529Z,0
2018-05-14T02:23:08.982Z,0
2018-05-14T02:24:18.412Z,0
2018-05-14T02:25:28.409Z,0
2018-05-14T02:26:37.582Z,0
2018-05-14T02:27:47.011Z,0
2018-05-14T02:28:56.451Z,0
2018-05-14T02:30:05.874Z,0
2018-05-14T02:31:15.107Z,0
2018-05-14T02:32:24.033Z,0
2018-05-14T02:33:33.241Z,0
2018-05-14T02:34:42.664Z,0
2018-05-14T02:35:52.357Z,0
2018-05-14T02:37:01.831Z,0
2018-05-14T02:38:11.258Z,0
2018-05-14T02:39:20.687Z,0
2018-05-14T02:40:30.646Z,0
2018-05-14T02:41:40.069Z,0
2018-05-14T02:42:49.749Z,0
2018-05-14T02:43:59.445Z,0
2018-05-14T02:45:08.374Z,0
2018-05-14T02:46:17.828Z,0
2018-05-14T02:47:27.771Z,0
2018-05-14T02:48:37.502Z,0
2018-05-14T02:49:47.284Z,0
2018-05-14T02:50:56.452Z,0
2018-05-14T02:52:06.191Z,0
2018-05-14T02:53:15.950Z,0
2018-05-14T02:54:25.684Z,0
2018-05-14T02:55:34.864Z,0
2018-05-14T02:56:44.332Z,0
2018-05-14T02:57:54.061Z,0
2018-05-14T02:59:03.501Z,0
2018-05-14T03:00:13.211Z,0
2018-05-14T03:01:22.681Z,0
2018-05-14T03:02:32.503Z,0
2018-05-14T03:03:42.094Z,0
2018-05-14T03:04:52.409Z,0
2018-05-14T03:06:01.510Z,0
2018-05-14T03:07:11.227Z,0
2018-05-14T03:08:21.254Z,0
2018-05-14T03:09:30.975Z,0
2018-05-14T03:10:40.378Z,0
2018-05-14T03:11:49.838Z,0
2018-05-14T03:12:59.575Z,0
2018-05-14T03:14:08.488Z,0
2018-05-14T03:15:17.920Z,0
2018-05-14T03:16:27.356Z,0
2018-05-14T03:17:36.347Z,0
2018-05-14T03:18:45.832Z,0
2018-05-14T03:19:55.283Z,0
2018-05-14T03:21:04.986Z,0
2018-05-14T03:22:13.903Z,0
2018-05-14T03:23:23.331Z,0
2018-05-14T03:24:32.764Z,0
2018-05-14T03:25:42.208Z,0
2018-05-14T03:26:51.672Z,0
2018-05-14T03:28:00.570Z,0
2018-05-14T03:29:10.231Z,0
2018-05-14T03:30:19.668Z,0
2018-05-14T03:31:29.601Z,0
2018-05-14T03:32:39.317Z,0
2018-05-14T03:33:48.767Z,0
2018-05-14T03:34:57.953Z,0
2018-05-14T03:36:07.369Z,0
2018-05-14T03:37:16.832Z,0
2018-05-14T03:38:26.308Z,0
2018-05-14T03:39:35.494Z,0
2018-05-14T03:40:44.750Z,0
2018-05-14T03:41:54.230Z,0
2018-05-14T03:43:04.180Z,0
2018-05-14T03:44:13.325Z,0
2018-05-14T03:45:22.820Z,0
2018-05-14T03:46:32.263Z,0
2018-05-14T03:47:41.689Z,0
2018-05-14T03:48:51.110Z,0
2018-05-14T03:50:00.275Z,0
2018-05-14T03:51:09.440Z,0
2018-05-14T03:52:18.908Z,0
2018-05-14T03:53:28.127Z,0
2018-05-14T03:54:38.094Z,0
2018-05-14T03:55:48.120Z,0
2018-05-14T03:56:57.036Z,0
2018-05-14T03:58:06.647Z,0
2018-05-14T03:59:16.081Z,0
2018-05-14T04:00:26.051Z,0
2018-05-14T04:01:35.227Z,0
2018-05-14T04:02:44.908Z,0
2018-05-14T04:03:54.500Z,0
2018-05-14T04:05:03.675Z,0
2018-05-14T04:06:12.601Z,0
2018-05-14T04:07:22.328Z,0
2018-05-14T04:08:32.589Z,0
2018-05-14T04:09:41.794Z,0
2018-05-14T04:10:51.471Z,0
2018-05-14T04:12:00.936Z,0
2018-05-14T04:13:10.415Z,0
2018-05-14T04:14:19.590Z,0
2018-05-14T04:15:29.014Z,0
2018-05-14T04:16:38.667Z,0
2018-05-14T04:17:48.649Z,0
2018-05-14T04:18:57.847Z,0
2018-05-14T04:20:07.506Z,0
2018-05-14T04:21:16.949Z,0
2018-05-14T04:22:26.933Z,0
2018-05-14T04:23:36.350Z,0
2018-05-14T04:24:46.043Z,0
2018-05-14T04:25:55.464Z,0
2018-05-14T04:27:04.442Z,0
2018-05-14T04:28:13.909Z,0
2018-05-14T04:29:23.586Z,0
2018-05-14T04:30:32.783Z,0
2018-05-14T04:31:42.493Z,0
2018-05-14T04:32:51.684Z,0
2018-05-14T04:34:00.347Z,0
2018-05-14T04:35:10.268Z,0
2018-05-14T04:36:19.733Z,0
2018-05-14T04:37:29.483Z,0
2018-05-14T04:38:38.917Z,0
2018-05-14T04:39:48.374Z,0
2018-05-14T04:40:58.046Z,0
2018-05-14T04:42:07.486Z,0
2018-05-14T04:43:17.173Z,0
2018-05-14T04:44:26.852Z,0
2018-05-14T04:45:36.338Z,0
2018-05-14T04:46:45.885Z,0
2018-05-14T04:47:55.880Z,0
2018-05-14T04:49:05.600Z,0
2018-05-14T04:50:15.281Z,0
2018-05-14T04:51:24.809Z,0
2018-05-14T04:52:34.757Z,0
2018-05-14T04:53:44.210Z,0
2018-05-14T04:54:53.743Z,0
2018-05-14T04:56:02.914Z,0
2018-05-14T04:57:12.137Z,0
2018-05-14T04:58:21.590Z,0
2018-05-14T04:59:31.434Z,0
2018-05-14T05:00:41.409Z,0
2018-05-14T05:01:50.859Z,0
2018-05-14T05:03:00.564Z,0
2018-05-14T05:04:10.284Z,0
2018-05-14T05:05:19.706Z,0
2018-05-14T05:06:29.395Z,0
2018-05-14T05:07:38.574Z,0
2018-05-14T05:08:47.760Z,0
2018-05-14T05:09:57.696Z,0
2018-05-14T05:11:06.910Z,0
2018-05-14T05:12:16.597Z,0
2018-05-14T05:13:25.757Z,0
2018-05-14T05:14:35.436Z,0
2018-05-14T05:15:44.906Z,0
2018-05-14T05:16:54.078Z,0
2018-05-14T05:18:03.498Z,0
2018-05-14T05:19:12.944Z,0
2018-05-14T05:20:22.389Z,0
2018-05-14T05:21:31.376Z,4
2018-05-14T05:22:40.795Z,4
2018-05-14T05:23:50.890Z,4
2018-05-14T05:25:00.593Z,4
2018-05-14T05:26:10.022Z,4
2018-05-14T05:27:19.724Z,4
2018-05-14T05:28:29.664Z,4
2018-05-14T05:29:39.365Z,0
2018-05-14T05:30:48.799Z,4
2018-05-14T05:31:58.511Z,0
2018-05-14T05:33:08.061Z,4
2018-05-14T05:34:17.538Z,0
2018-05-14T05:35:26.962Z,0
2018-05-14T05:36:36.161Z,4
2018-05-14T05:37:45.765Z,4
2018-05-14T05:38:55.404Z,4
2018-05-14T05:40:05.344Z,4
2018-05-14T05:41:14.521Z,4
2018-05-14T05:42:23.975Z,4
2018-05-14T05:43:33.152Z,4
2018-05-14T05:44:42.866Z,0
2018-05-14T05:45:52.303Z,4
2018-05-14T05:47:00.977Z,0
2018-05-14T05:48:10.742Z,4
2018-05-14T05:49:19.403Z,4
2018-05-14T05:50:28.593Z,4
2018-05-14T05:51:37.798Z,4
2018-05-14T05:52:46.939Z,4
2018-05-14T05:53:56.117Z,4
2018-05-14T05:55:05.004Z,4
2018-05-14T05:56:14.720Z,4
2018-05-14T05:57:24.424Z,4
2018-05-14T05:58:34.113Z,4
2018-05-14T05:59:43.372Z,4
2018-05-14T06:00:52.564Z,4
2018-05-14T06:02:01.486Z,4
2018-05-14T06:03:11.190Z,4
2018-05-14T06:04:20.875Z,4
2018-05-14T06:05:30.154Z,4
2018-05-14T06:06:39.829Z,4
2018-05-14T06:07:49.004Z,8
2018-05-14T06:08:58.201Z,8
2018-05-14T06:10:07.405Z,4
2018-05-14T06:11:17.273Z,4
2018-05-14T06:12:26.712Z,8
2018-05-14T06:13:36.391Z,4
2018-05-14T06:14:45.863Z,4
2018-05-14T06:15:55.309Z,4
2018-05-14T06:17:04.518Z,4
2018-05-14T06:18:13.943Z,4
2018-05-14T06:19:22.643Z,4
2018-05-14T06:20:31.822Z,4
2018-05-14T06:21:41.259Z,4
2018-05-14T06:22:50.447Z,4
2018-05-14T06:23:59.873Z,4
2018-05-14T06:25:09.061Z,4
2018-05-14T06:26:19.015Z,4
2018-05-14T06:27:28.953Z,4
2018-05-14T06:28:38.140Z,4
2018-05-14T06:29:47.609Z,4
2018-05-14T06:30:57.049Z,4
2018-05-14T06:32:06.232Z,4
2018-05-14T06:33:15.166Z,4
2018-05-14T06:34:24.397Z,8
2018-05-14T06:35:34.008Z,8
2018-05-14T06:36:43.648Z,8
2018-05-14T06:37:53.622Z,4
2018-05-14T06:39:02.833Z,4
2018-05-14T06:40:12.536Z,8
2018-05-14T06:41:21.717Z,4
2018-05-14T06:42:30.904Z,8
2018-05-14T06:43:40.338Z,4
2018-05-14T06:44:49.534Z,8
2018-05-14T06:45:59.222Z,4
2018-05-14T06:47:08.653Z,4
2018-05-14T06:48:17.898Z,8
2018-05-14T06:49:27.344Z,4
2018-05-14T06:50:36.006Z,4
2018-05-14T06:51:45.074Z,4
2018-05-14T06:52:53.988Z,8
2018-05-14T06:54:03.414Z,4
2018-05-14T06:55:13.240Z,8
2018-05-14T06:56:22.809Z,4
2018-05-14T06:57:32.538Z,8
2018-05-14T06:58:41.949Z,4
2018-05-14T06:59:51.661Z,4
2018-05-14T07:01:01.093Z,8
2018-05-14T07:02:10.385Z,4
2018-05-14T07:03:20.150Z,4
2018-05-14T07:04:29.325Z,4
2018-05-14T07:05:38.243Z,8
2018-05-14T07:06:47.154Z,8
2018-05-14T07:07:56.601Z,8
2018-05-14T07:09:06.073Z,8
2018-05-14T07:10:15.537Z,4
2018-05-14T07:11:24.569Z,4
2018-05-14T07:12:34.295Z,4
2018-05-14T07:13:43.208Z,4
2018-05-14T07:14:52.635Z,4
2018-05-14T07:16:02.575Z,4
2018-05-14T07:17:12.945Z,8
2018-05-14T07:18:22.884Z,8
2018-05-14T07:19:32.596Z,4
2018-05-14T07:20:41.835Z,8
2018-05-14T07:21:51.298Z,8
2018-05-14T07:23:00.733Z,8
2018-05-14T07:24:09.636Z,8
2018-05-14T07:25:18.790Z,8
2018-05-14T07:26:28.241Z,4
2018-05-14T07:27:38.199Z,8
2018-05-14T07:28:47.405Z,8
2018-05-14T07:29:57.105Z,8
2018-05-14T07:31:06.526Z,8
2018-05-14T07:32:15.443Z,12
2018-05-14T07:33:24.883Z,8
2018-05-14T07:34:34.234Z,4
2018-05-14T07:35:43.137Z,8
2018-05-14T07:36:52.556Z,8
2018-05-14T07:38:01.816Z,12
2018-05-14T07:39:11.151Z,8
2018-05-14T07:40:20.856Z,8
2018-05-14T07:41:30.314Z,8
2018-05-14T07:42:40.147Z,8
2018-05-14T07:43:50.126Z,8
2018-05-14T07:44:59.296Z,8
2018-05-14T07:46:08.941Z,12
2018-05-14T07:47:18.209Z,12
2018-05-14T07:48:27.655Z,12
2018-05-14T07:49:36.819Z,16
2018-05-14T07:50:46.249Z,16
2018-05-14T07:51:55.679Z,16
2018-05-14T07:53:05.113Z,20
2018-05-14T07:54:14.274Z,28
2018-05-14T07:55:23.715Z,28
2018-05-14T07:56:33.657Z,20
2018-05-14T07:57:43.091Z,16
2018-05-14T07:58:52.539Z,12
2018-05-14T08:00:01.698Z,12
2018-05-14T08:01:11.423Z,12
2018-05-14T08:02:20.876Z,12
2018-05-14T08:03:30.300Z,12
2018-05-14T08:04:39.525Z,12
2018-05-14T08:05:49.646Z,12
2018-05-14T08:06:59.232Z,16
2018-05-14T08:08:09.551Z,16
2018-05-14T08:09:18.715Z,20
2018-05-14T08:10:27.957Z,24
2018-05-14T08:11:37.292Z,20
2018-05-14T08:12:47.565Z,20
2018-05-14T08:13:56.999Z,40
2018-05-14T08:15:06.441Z,36
2018-05-14T08:16:15.874Z,32
2018-05-14T08:17:25.551Z,32
2018-05-14T08:18:34.978Z,20
2018-05-14T08:19:45.021Z,32
2018-05-14T08:20:54.736Z,32
2018-05-14T08:22:04.436Z,24
2018-05-14T08:23:13.877Z,32
2018-05-14T08:24:23.310Z,24
2018-05-14T08:25:32.809Z,24
2018-05-14T08:26:42.278Z,28
2018-05-14T08:27:52.247Z,28
2018-05-14T08:29:01.976Z,32
2018-05-14T08:30:11.135Z,36
2018-05-14T08:31:20.957Z,24
2018-05-14T08:32:29.908Z,20
2018-05-14T08:33:39.340Z,28
2018-05-14T08:34:48.790Z,24
2018-05-14T08:35:58.503Z,24
2018-05-14T08:37:08.224Z,20
2018-05-14T08:38:17.996Z,12
2018-05-14T08:39:27.434Z,16
2018-05-14T08:40:37.132Z,16
2018-05-14T08:41:47.075Z,20
2018-05-14T08:42:57.166Z,24
2018-05-14T08:44:07.111Z,20
2018-05-14T08:45:16.941Z,20
2018-05-14T08:46:26.119Z,12
2018-05-14T08:47:35.311Z,12
2018-05-14T08:48:44.588Z,12
2018-05-14T08:49:53.786Z,12
2018-05-14T08:51:02.957Z,16
2018-05-14T08:52:12.403Z,16
2018-05-14T08:53:22.075Z,16
2018-05-14T08:54:31.668Z,20
2018-05-14T08:55:41.369Z,24
2018-05-14T08:56:50.525Z,24
2018-05-14T08:57:59.961Z,24
2018-05-14T08:59:09.132Z,16
2018-05-14T09:00:18.579Z,16
2018-05-14T09:01:27.495Z,20
2018-05-14T09:02:36.927Z,20
2018-05-14T09:03:46.089Z,16
2018-05-14T09:04:55.515Z,16
2018-05-14T09:06:04.442Z,20
2018-05-14T09:07:13.897Z,16
2018-05-14T09:08:23.097Z,20
2018-05-14T09:09:32.260Z,16
2018-05-14T09:10:42.493Z,12
2018-05-14T09:11:51.669Z,12
2018-05-14T09:13:00.861Z,12
2018-05-14T09:14:10.336Z,12
2018-05-14T09:15:19.760Z,12
2018-05-14T09:16:29.192Z,12
2018-05-14T09:17:39.136Z,12
2018-05-14T09:18:48.820Z,16
2018-05-14T09:19:58.500Z,16
2018-05-14T09:21:07.676Z,20
2018-05-14T09:22:17.218Z,16
2018-05-14T09:23:26.917Z,16
2018-05-14T09:24:36.601Z,24
2018-05-14T09:25:46.052Z,36
2018-05-14T09:26:55.479Z,24
2018-05-14T09:28:04.929Z,40
2018-05-14T09:29:14.890Z,36
2018-05-14T09:30:24.333Z,40
2018-05-14T09:31:34.257Z,40
2018-05-14T09:32:43.422Z,36
2018-05-14T09:33:53.196Z,40
2018-05-14T09:35:03.135Z,40
2018-05-14T09:36:12.043Z,40
2018-05-14T09:37:21.735Z,40
2018-05-14T09:38:31.294Z,40
2018-05-14T09:39:40.727Z,36
2018-05-14T09:40:50.454Z,40
2018-05-14T09:42:00.160Z,40
2018-05-14T09:43:09.853Z,36
2018-05-14T09:44:19.555Z,40
2018-05-14T09:45:29.232Z,40
2018-05-14T09:46:38.659Z,40
2018-05-14T09:47:48.090Z,40
2018-05-14T09:48:57.805Z,40
2018-05-14T09:50:07.231Z,40
2018-05-14T09:51:16.474Z,40
2018-05-14T09:52:25.394Z,40
2018-05-14T09:53:35.516Z,36
2018-05-14T09:54:45.231Z,40
2018-05-14T09:55:54.659Z,36
2018-05-14T09:57:04.104Z,32
2018-05-14T09:58:13.283Z,36
2018-05-14T09:59:22.739Z,36
2018-05-14T10:00:32.184Z,36
2018-05-14T10:01:40.842Z,36
2018-05-14T10:02:50.016Z,40
2018-05-14T10:03:59.463Z,36
2018-05-14T10:05:09.466Z,36
2018-05-14T10:06:18.920Z,36
2018-05-14T10:07:28.628Z,36
2018-05-14T10:08:37.787Z,36
2018-05-14T10:09:46.728Z,40
2018-05-14T10:10:56.154Z,36
2018-05-14T10:12:04.809Z,36
2018-05-14T10:13:14.490Z,40
2018-05-14T10:14:23.666Z,36
2018-05-14T10:15:33.390Z,36
2018-05-14T10:16:42.609Z,36
2018-05-14T10:17:52.285Z,36
2018-05-14T10:19:01.743Z,36
2018-05-14T10:20:10.636Z,36
2018-05-14T10:21:19.550Z,40
2018-05-14T10:22:28.991Z,32
2018-05-14T10:23:38.404Z,20
2018-05-14T10:24:48.772Z,36
2018-05-14T10:25:58.227Z,16
2018-05-14T10:27:07.672Z,32
2018-05-14T10:28:16.838Z,36
2018-05-14T10:29:25.584Z,32
2018-05-14T10:30:35.636Z,32
2018-05-14T10:31:44.850Z,36
2018-05-14T10:32:54.029Z,32
2018-05-14T10:34:03.245Z,32
2018-05-14T10:35:12.667Z,32
2018-05-14T10:36:22.608Z,32
2018-05-14T10:37:32.033Z,32
2018-05-14T10:38:41.465Z,32
2018-05-14T10:39:50.121Z,32
2018-05-14T10:40:59.636Z,32
2018-05-14T10:42:08.819Z,28
2018-05-14T10:43:18.256Z,32
2018-05-14T10:44:27.723Z,32
2018-05-14T10:45:37.133Z,28
2018-05-14T10:46:46.429Z,32
2018-05-14T10:47:55.922Z,32
2018-05-14T10:49:04.833Z,28
2018-05-14T10:50:13.997Z,32
2018-05-14T10:51:23.428Z,32
2018-05-14T10:52:32.626Z,32
2018-05-14T10:53:41.524Z,32
2018-05-14T10:54:51.204Z,28
2018-05-14T10:56:00.682Z,28
2018-05-14T10:57:09.849Z,20
2018-05-14T10:58:19.792Z,24
2018-05-14T10:59:29.505Z,28
2018-05-14T11:00:38.678Z,32
2018-05-14T11:01:48.095Z,28
2018-05-14T11:02:57.521Z,28
2018-05-14T11:04:07.315Z,28
2018-05-14T11:05:16.479Z,28
2018-05-14T11:06:25.431Z,28
2018-05-14T11:07:34.856Z,28
2018-05-14T11:08:44.281Z,28
2018-05-14T11:09:53.998Z,28
2018-05-14T11:11:03.700Z,28
2018-05-14T11:12:13.127Z,24
2018-05-14T11:13:22.560Z,28
2018-05-14T11:14:32.244Z,24
2018-05-14T11:15:41.422Z,28
2018-05-14T11:16:50.615Z,24
2018-05-14T11:18:00.296Z,24
2018-05-14T11:19:09.234Z,28
2018-05-14T11:20:18.921Z,28
2018-05-14T11:21:29.298Z,20
2018-05-14T11:22:38.461Z,28
2018-05-14T11:23:47.639Z,24
2018-05-14T11:24:57.324Z,28
2018-05-14T11:26:07.289Z,28
2018-05-14T11:27:16.735Z,24
2018-05-14T11:28:26.444Z,24
2018-05-14T11:29:35.857Z,28
2018-05-14T11:30:45.361Z,24
2018-05-14T11:31:54.288Z,28
2018-05-14T11:33:03.440Z,24
2018-05-14T11:34:12.382Z,24
2018-05-14T11:35:22.220Z,24
2018-05-14T11:36:31.822Z,20
2018-05-14T11:37:41.513Z,24
2018-05-14T11:38:51.220Z,24
2018-05-14T11:40:00.931Z,28
2018-05-14T11:41:10.621Z,24
2018-05-14T11:42:20.589Z,24
2018-05-14T11:43:29.493Z,24
2018-05-14T11:44:39.407Z,28
2018-05-14T11:45:48.832Z,28
2018-05-14T11:46:58.265Z,28
2018-05-14T11:48:07.744Z,24
2018-05-14T11:49:17.189Z,24
2018-05-14T11:50:26.927Z,28
2018-05-14T11:51:36.090Z,28
2018-05-14T11:52:45.235Z,24
2018-05-14T11:53:54.392Z,24
2018-05-14T11:55:03.610Z,28
2018-05-14T11:56:13.431Z,28
2018-05-14T11:57:23.108Z,28
2018-05-14T11:58:32.806Z,28
2018-05-14T11:59:42.486Z,28
2018-05-14T12:00:51.901Z,28
2018-05-14T12:02:01.088Z,28
2018-05-14T12:03:10.375Z,28
2018-05-14T12:04:20.004Z,28
2018-05-14T12:05:29.797Z,28
2018-05-14T12:06:39.497Z,28
2018-05-14T12:07:48.696Z,28
2018-05-14T12:08:58.208Z,32
2018-05-14T12:10:07.426Z,32
2018-05-14T12:11:17.314Z,32
2018-05-14T12:12:26.488Z,28
2018-05-14T12:13:36.177Z,32
2018-05-14T12:14:45.914Z,28
2018-05-14T12:15:55.380Z,28
2018-05-14T12:17:05.331Z,32
2018-05-14T12:18:15.707Z,32
2018-05-14T12:19:25.443Z,32
2018-05-14T12:20:35.388Z,32
2018-05-14T12:21:44.834Z,36
2018-05-14T12:22:54.269Z,36
2018-05-14T12:24:03.203Z,32
2018-05-14T12:25:12.382Z,36
2018-05-14T12:26:21.823Z,28
2018-05-14T12:27:31.260Z,32
2018-05-14T12:28:40.700Z,36
2018-05-14T12:29:49.611Z,20
2018-05-14T12:30:58.773Z,36
2018-05-14T12:32:09.003Z,20
2018-05-14T12:33:18.480Z,24
2018-05-14T12:34:27.918Z,16
2018-05-14T12:35:37.418Z,16
2018-05-14T12:36:47.374Z,16
2018-05-14T12:37:56.534Z,16
2018-05-14T12:39:06.322Z,24
2018-05-14T12:40:16.013Z,28
2018-05-14T12:41:24.907Z,44
2018-05-14T12:42:34.071Z,44
2018-05-14T12:43:43.488Z,40
2018-05-14T12:44:52.904Z,16
2018-05-14T12:46:02.101Z,16
2018-05-14T12:47:12.126Z,16
2018-05-14T12:48:21.288Z,40
2018-05-14T12:49:30.185Z,44
2018-05-14T12:50:39.101Z,44
2018-05-14T12:51:48.623Z,44
2018-05-14T12:52:58.376Z,44
2018-05-14T12:54:08.056Z,48
2018-05-14T12:55:17.732Z,48
2018-05-14T12:56:26.917Z,44
2018-05-14T12:57:36.082Z,48
2018-05-14T12:58:45.507Z,48
2018-05-14T12:59:54.664Z,48
2018-05-14T13:01:03.599Z,48
2018-05-14T13:02:13.028Z,48
2018-05-14T13:03:22.526Z,28
2018-05-14T13:04:31.446Z,24
2018-05-14T13:05:40.611Z,48
2018-05-14T13:06:49.780Z,36
2018-05-14T13:07:59.023Z,16
2018-05-14T13:09:08.460Z,20
2018-05-14T13:10:17.882Z,20
2018-05-14T13:11:27.043Z,20
2018-05-14T13:12:35.718Z,28
2018-05-14T13:13:45.128Z,20
2018-05-14T13:14:54.820Z,8
2018-05-14T13:16:03.716Z,4
2018-05-14T13:17:13.132Z,4
2018-05-14T13:18:22.551Z,0
2018-05-14T13:19:32.030Z,0
2018-05-14T13:20:41.518Z,4
2018-05-14T13:21:50.464Z,4
2018-05-14T13:23:00.144Z,4
2018-05-14T13:24:09.310Z,4
2018-05-14T13:25:19.452Z,4
2018-05-14T13:26:29.012Z,4
2018-05-14T13:27:38.440Z,4
2018-05-14T13:28:48.380Z,4
2018-05-14T13:29:58.069Z,4
2018-05-14T13:31:07.496Z,4
2018-05-14T13:32:17.469Z,8
2018-05-14T13:33:26.886Z,8
2018-05-14T13:34:36.330Z,28
2018-05-14T13:35:46.056Z,24
2018-05-14T13:36:55.798Z,20
2018-05-14T13:38:06.284Z,48
2018-05-14T13:39:15.626Z,48
2018-05-14T13:40:25.030Z,52
2018-05-14T13:41:34.730Z,56
2018-05-14T13:42:44.146Z,52
2018-05-14T13:43:53.100Z,56
2018-05-14T13:45:02.795Z,56
2018-05-14T13:46:12.482Z,60
2018-05-14T13:47:21.908Z,56
2018-05-14T13:48:31.057Z,48
2018-05-14T13:49:40.213Z,60
2018-05-14T13:50:49.887Z,60
2018-05-14T13:51:59.126Z,56
2018-05-14T13:53:08.820Z,36
2018-05-14T13:54:18.533Z,60
2018-05-14T13:55:27.961Z,60
2018-05-14T13:56:37.635Z,56
2018-05-14T13:57:47.065Z,60
2018-05-14T13:58:56.244Z,56
2018-05-14T14:00:05.655Z,20
2018-05-14T14:01:15.081Z,56
2018-05-14T14:02:23.984Z,56
2018-05-14T14:03:33.164Z,40
2018-05-14T14:04:42.831Z,60
2018-05-14T14:05:52.237Z,60
2018-05-14T14:07:01.423Z,60
2018-05-14T14:08:10.856Z,48
2018-05-14T14:09:20.019Z,60
2018-05-14T14:10:29.703Z,60
2018-05-14T14:11:39.275Z,60
2018-05-14T14:12:48.722Z,56
2018-05-14T14:13:58.398Z,20
2018-05-14T14:15:07.569Z,64
2018-05-14T14:16:17.259Z,16
2018-05-14T14:17:26.417Z,16
2018-05-14T14:18:35.582Z,12
2018-05-14T14:19:44.731Z,20
2018-05-14T14:20:54.688Z,60
2018-05-14T14:22:04.125Z,60
2018-05-14T14:23:14.595Z,60
2018-05-14T14:24:24.648Z,40
2018-05-14T14:25:33.559Z,20
2018-05-14T14:26:43.621Z,24
2018-05-14T14:27:53.311Z,16
2018-05-14T14:29:02.761Z,16
2018-05-14T14:30:12.186Z,12
2018-05-14T14:31:21.662Z,16
2018-05-14T14:32:30.817Z,16
2018-05-14T14:33:40.011Z,48
2018-05-14T14:34:48.922Z,44
2018-05-14T14:35:58.566Z,36
2018-05-14T14:37:08.275Z,48
2018-05-14T14:38:17.899Z,32
2018-05-14T14:39:27.590Z,12
2018-05-14T14:40:36.487Z,40
2018-05-14T14:41:45.669Z,40
2018-05-14T14:42:55.410Z,36
2018-05-14T14:44:04.885Z,36
2018-05-14T14:45:14.324Z,36
2018-05-14T14:46:23.711Z,24
2018-05-14T14:47:33.577Z,36
2018-05-14T14:48:42.743Z,36
2018-05-14T14:49:52.424Z,32
2018-05-14T14:51:01.606Z,28
2018-05-14T14:52:11.569Z,28
2018-05-14T14:53:21.282Z,28
2018-05-14T14:54:30.709Z,28
2018-05-14T14:55:39.624Z,28
2018-05-14T14:56:49.062Z,28
2018-05-14T14:57:58.754Z,24
2018-05-14T14:59:07.730Z,24
2018-05-14T15:00:17.172Z,28
2018-05-14T15:01:26.382Z,24
2018-05-14T15:02:36.356Z,28
2018-05-14T15:03:45.588Z,24
2018-05-14T15:04:55.350Z,20
2018-05-14T15:06:04.573Z,20
2018-05-14T15:07:14.081Z,20
2018-05-14T15:08:23.319Z,20
2018-05-14T15:09:32.565Z,16
2018-05-14T15:10:41.513Z,16
2018-05-14T15:11:51.295Z,16
2018-05-14T15:13:00.496Z,16
2018-05-14T15:14:10.296Z,12
2018-05-14T15:15:19.719Z,12
2018-05-14T15:16:29.725Z,12
2018-05-14T15:17:38.703Z,12
2018-05-14T15:18:48.696Z,12
2018-05-14T15:19:58.272Z,12
2018-05-14T15:21:07.458Z,8
2018-05-14T15:22:16.659Z,8
2018-05-14T15:23:25.855Z,8
2018-05-14T15:24:35.298Z,8
2018-05-14T15:25:44.800Z,8
2018-05-14T15:26:54.510Z,8
2018-05-14T15:28:03.686Z,8
2018-05-14T15:29:13.396Z,8
2018-05-14T15:30:22.569Z,8
2018-05-14T15:31:32.253Z,8
2018-05-14T15:32:41.716Z,8
2018-05-14T15:33:51.752Z,8
2018-05-14T15:35:00.959Z,12
2018-05-14T15:36:10.651Z,12
2018-05-14T15:37:19.894Z,12
2018-05-14T15:38:29.344Z,8
2018-05-14T15:39:38.568Z,12
2018-05-14T15:40:48.279Z,12
2018-05-14T15:41:57.519Z,12
2018-05-14T15:43:06.745Z,8
2018-05-14T15:44:16.215Z,8
2018-05-14T15:45:25.942Z,8
2018-05-14T15:46:35.470Z,12
2018-05-14T15:47:45.168Z,8
2018-05-14T15:48:54.155Z,4
2018-05-14T15:50:03.219Z,8
2018-05-14T15:51:12.508Z,12
2018-05-14T15:52:22.246Z,8
2018-05-14T15:53:31.468Z,8
2018-05-14T15:54:40.392Z,8
2018-05-14T15:55:49.879Z,12
2018-05-14T15:56:59.083Z,12
2018-05-14T15:58:08.546Z,12
2018-05-14T15:59:18.281Z,12
2018-05-14T16:00:27.444Z,12
2018-05-14T16:01:37.195Z,12
2018-05-14T16:02:46.382Z,12
2018-05-14T16:03:55.572Z,12
2018-05-14T16:05:04.237Z,8
2018-05-14T16:06:13.942Z,8
2018-05-14T16:07:23.127Z,8
2018-05-14T16:08:32.292Z,8
2018-05-14T16:09:41.720Z,12
2018-05-14T16:10:51.438Z,4
2018-05-14T16:12:01.137Z,4
2018-05-14T16:13:10.841Z,8
2018-05-14T16:14:20.286Z,8
2018-05-14T16:15:30.018Z,8
2018-05-14T16:16:39.213Z,4
2018-05-14T16:17:48.669Z,4
2018-05-14T16:18:58.397Z,4
2018-05-14T16:20:07.580Z,4
2018-05-14T16:21:16.231Z,8
2018-05-14T16:22:25.672Z,8
2018-05-14T16:23:35.109Z,4
2018-05-14T16:24:44.846Z,4
2018-05-14T16:25:54.308Z,4
2018-05-14T16:27:03.770Z,4
2018-05-14T16:28:13.811Z,4
2018-05-14T16:29:23.032Z,4
2018-05-14T16:30:32.194Z,4
2018-05-14T16:31:41.096Z,4
2018-05-14T16:32:50.803Z,4
2018-05-14T16:34:00.215Z,4
2018-05-14T16:35:10.187Z,4
2018-05-14T16:36:19.868Z,4
2018-05-14T16:37:29.034Z,4
2018-05-14T16:38:38.496Z,4
2018-05-14T16:39:48.256Z,4
2018-05-14T16:40:57.668Z,4
2018-05-14T16:42:07.514Z,4
2018-05-14T16:43:17.226Z,4
2018-05-14T16:44:26.427Z,4
2018-05-14T16:45:36.167Z,4
2018-05-14T16:46:45.334Z,4
2018-05-14T16:47:54.533Z,4
2018-05-14T16:49:04.638Z,4
2018-05-14T16:50:14.358Z,4